Terminal Aerodrome Forecast
Issued by NWS

Home | Current Version | Previous Version | Text Only | Print | Product List | Glossary On
Versions: 1 2 3 4 5 6 7 8 9
310
FTUS45 KVEF 251741
TAFHND
TAF
KHND 251741Z 2518/2618 35019G29KT P6SM FEW150 SCT250
     FM260200 01011KT P6SM SCT250
     FM260500 25007KT P6SM SCT250
     FM261000 VRB05KT P6SM SCT250=

USA.gov is the U.S. government's official web portal to all federal, state and local government web resources and services.